sim
Sign-in with your pilot id or email,
or register
Callsign
Passwort

Schedule Details

Flight Number: OEF9007
Departure: Kolkata International Airport (VECC) at 10:20
Arrival: Mumbai Chhatrapati Shivaji International Airport (VABB) at 12:50

Weather Information
Getting current METAR information for VECC 191900Z 16005KT 3800 HZ FEW020 27/26 Q1005 NOSIG
Getting current METAR information for VABB 191900Z 27007KT 3500 HZ FEW020 SCT025 28/25 Q1010 BECMG 3000 HZ

Schedule Frequency

Route Map